Monroe, Oregon
Current Conditions -  °F | °C
As of 2:35 PM on Sunday 28 Dec 2014 (Local Time) from KCVO Reporting Station
Broken Clouds Broken Clouds  
Wind Chill: 44°   Ceiling: 7000
Heat Index: 46°   Visibility: 10mi
Dew Point: 41°   Wind: 6mph
Humidity: 81%   Direction: 250°WSW
Pressure: 30.28"   Gusts: NA
Location:  44.31°N, 123.3°W
Report Text: KCVO 282235Z AUTO 25005KT 10SM FEW055 BKN070 08/05 A3028 RMK AO1
Loading
Personal Weather Stations






























Interactive Weather Map New forecast layout! Learn more

10-Day Weather Forecast

Advertisements
Track Severe Weather on mobile